createdAt,value
2019-01-19T00:02:16.133Z,-2.70
2019-01-19T00:05:13.143Z,-2.70
2019-01-19T00:07:57.724Z,-2.70
2019-01-19T00:11:03.644Z,-2.80
2019-01-19T00:13:51.630Z,-2.70
2019-01-19T00:17:00.900Z,-2.90
2019-01-19T00:19:48.739Z,-2.80
2019-01-19T00:22:36.986Z,-2.60
2019-01-19T00:25:40.298Z,-2.60
2019-01-19T00:28:28.282Z,-2.70
2019-01-19T00:31:41.053Z,-3.00
2019-01-19T00:34:25.747Z,-3.10
2019-01-19T00:37:05.128Z,-2.90
2019-01-19T00:39:44.411Z,-2.90
2019-01-19T00:42:32.380Z,-2.70
2019-01-19T00:45:52.592Z,-2.60
2019-01-19T00:48:40.509Z,-3.00
2019-01-19T00:51:22.342Z,-3.00
2019-01-19T00:54:19.274Z,-2.80
2019-01-19T00:57:04.323Z,-2.90
2019-01-19T00:59:38.934Z,-2.90
2019-01-19T01:02:37.825Z,-3.10
2019-01-19T01:05:25.175Z,-3.20
2019-01-19T01:08:21.310Z,-3.20
2019-01-19T01:11:06.088Z,-3.20
2019-01-19T01:13:57.105Z,-3.10
2019-01-19T01:16:42.147Z,-3.10
2019-01-19T01:19:39.316Z,-3.00
2019-01-19T01:22:30.360Z,-2.90
2019-01-19T01:25:32.513Z,-3.00
2019-01-19T01:28:20.567Z,-3.10
2019-01-19T01:31:02.632Z,-3.10
2019-01-19T01:34:08.874Z,-3.40
2019-01-19T01:37:02.728Z,-3.20
2019-01-19T01:39:53.818Z,-3.50
2019-01-19T01:43:04.495Z,-3.30
2019-01-19T01:45:58.870Z,-3.30
2019-01-19T01:48:46.865Z,-3.20
2019-01-19T01:51:34.712Z,-3.30
2019-01-19T01:54:46.792Z,-3.40
2019-01-19T01:57:25.192Z,-3.20
2019-01-19T02:00:28.044Z,-3.10
2019-01-19T02:03:23.649Z,-3.20
2019-01-19T02:06:12.183Z,-3.20
2019-01-19T02:09:14.407Z,-3.10
2019-01-19T02:12:10.486Z,-3.20
2019-01-19T02:15:18.101Z,-3.10
2019-01-19T02:18:23.200Z,-3.30
2019-01-19T02:21:08.115Z,-3.80
2019-01-19T02:23:53.299Z,-3.70
2019-01-19T02:26:44.215Z,-3.50
2019-01-19T02:29:32.353Z,-3.40
2019-01-19T02:32:23.429Z,-3.40
2019-01-19T02:35:08.161Z,-3.30
2019-01-19T02:37:55.721Z,-3.60
2019-01-19T02:40:55.966Z,-3.50
2019-01-19T02:43:35.178Z,-3.40
2019-01-19T02:46:37.946Z,-3.40
2019-01-19T02:49:26.276Z,-3.50
2019-01-19T02:52:54.166Z,-3.80
2019-01-19T02:55:46.239Z,-3.80
2019-01-19T02:58:37.064Z,-3.80
2019-01-19T03:01:33.021Z,-3.80
2019-01-19T03:04:26.951Z,-3.70
2019-01-19T03:07:22.863Z,-3.80
2019-01-19T03:10:27.547Z,-3.60
2019-01-19T03:13:18.555Z,-3.60
2019-01-19T03:16:06.473Z,-3.70
2019-01-19T03:19:01.141Z,-3.70
2019-01-19T03:21:43.270Z,-3.70
2019-01-19T03:24:37.790Z,-3.70
2019-01-19T03:27:23.026Z,-3.60
2019-01-19T03:30:30.910Z,-3.40
2019-01-19T03:33:34.246Z,-3.30
2019-01-19T03:36:19.140Z,-3.40
2019-01-19T03:39:39.577Z,-3.30
2019-01-19T03:42:31.247Z,-3.50
2019-01-19T03:45:46.460Z,-3.50
2019-01-19T03:48:31.661Z,-3.30
2019-01-19T03:51:16.674Z,-3.60
2019-01-19T03:54:01.633Z,-3.40
2019-01-19T03:56:49.997Z,-3.30
2019-01-19T03:59:41.463Z,-3.20
2019-01-19T04:02:29.300Z,-3.20
2019-01-19T04:05:23.344Z,-3.30
2019-01-19T04:08:36.817Z,-3.20
2019-01-19T04:11:33.756Z,-2.90
2019-01-19T04:14:53.811Z,-2.70
2019-01-19T04:17:45.169Z,-2.70
2019-01-19T04:20:39.135Z,-2.60
2019-01-19T04:23:13.624Z,-2.80
2019-01-19T04:25:52.957Z,-2.80
2019-01-19T04:28:27.592Z,-2.80
2019-01-19T04:31:02.035Z,-2.80
2019-01-19T04:33:36.466Z,-2.70
2019-01-19T04:36:11.881Z,-2.60
2019-01-19T04:38:46.944Z,-2.50
2019-01-19T04:41:21.399Z,-2.50
2019-01-19T04:43:55.828Z,-2.30
2019-01-19T04:46:30.323Z,-2.10
2019-01-19T04:49:04.853Z,-2.00
2019-01-19T04:51:39.228Z,-2.10
2019-01-19T04:54:13.688Z,-2.10
2019-01-19T04:56:48.196Z,-2.00
2019-01-19T04:59:22.674Z,-1.80
2019-01-19T05:01:57.035Z,-1.90
2019-01-19T05:04:31.536Z,-1.70
2019-01-19T05:07:05.997Z,-1.70
2019-01-19T05:09:40.484Z,-1.50
2019-01-19T05:12:14.999Z,-1.50
2019-01-19T05:14:49.345Z,-1.40
2019-01-19T05:17:23.880Z,-1.60
2019-01-19T05:19:58.240Z,-1.70
2019-01-19T05:22:32.606Z,-1.80
2019-01-19T05:25:10.355Z,-1.70
2019-01-19T05:27:44.743Z,-1.70
2019-01-19T05:30:20.623Z,-1.70
2019-01-19T05:32:55.415Z,-1.70
2019-01-19T05:35:29.880Z,-1.60
2019-01-19T05:38:04.344Z,-1.70
2019-01-19T05:40:38.770Z,-1.90
2019-01-19T05:43:13.577Z,-1.70
2019-01-19T05:45:47.914Z,-1.60
2019-01-19T05:48:22.366Z,-1.70
2019-01-19T05:50:56.721Z,-1.70
2019-01-19T05:53:31.174Z,-1.60
2019-01-19T05:56:05.588Z,-1.60
2019-01-19T05:58:39.977Z,-1.50
2019-01-19T06:01:14.508Z,-1.70
2019-01-19T06:03:48.942Z,-1.80
2019-01-19T06:06:23.888Z,-1.80
2019-01-19T06:08:58.260Z,-1.60
2019-01-19T06:11:32.687Z,-1.40
2019-01-19T06:14:07.124Z,-1.30
2019-01-19T06:16:41.612Z,-1.20
2019-01-19T06:19:16.491Z,-1.00
2019-01-19T06:21:52.491Z,-1.10
2019-01-19T06:24:26.940Z,-1.00
2019-01-19T06:27:01.438Z,-0.90
2019-01-19T06:29:35.885Z,-0.80
2019-01-19T06:32:10.380Z,-1.00
2019-01-19T06:34:44.885Z,-0.70
2019-01-19T06:37:19.324Z,-0.80
2019-01-19T06:39:53.808Z,-0.80
2019-01-19T06:42:28.297Z,-0.70
2019-01-19T06:45:02.765Z,-0.80
2019-01-19T06:47:37.191Z,-1.00
2019-01-19T06:50:16.995Z,-0.90
2019-01-19T06:52:51.410Z,-0.80
2019-01-19T06:55:29.280Z,-0.80
2019-01-19T06:58:03.636Z,-0.80
2019-01-19T07:00:38.132Z,-1.10
2019-01-19T07:03:12.677Z,-1.00
2019-01-19T07:05:47.163Z,-0.80
2019-01-19T07:08:21.589Z,-1.00
2019-01-19T07:10:56.057Z,-1.00
2019-01-19T07:13:30.613Z,-1.00
2019-01-19T07:16:05.103Z,-0.90
2019-01-19T07:18:39.547Z,-0.90
2019-01-19T07:21:14.024Z,-0.80
2019-01-19T07:23:48.543Z,-0.90
2019-01-19T07:26:23.039Z,-1.00
2019-01-19T07:28:57.395Z,-0.80
2019-01-19T07:31:31.792Z,-0.70
2019-01-19T07:34:06.143Z,-0.60
2019-01-19T07:36:40.533Z,-0.70
2019-01-19T07:39:15.038Z,-0.70
2019-01-19T07:41:49.474Z,-0.70
2019-01-19T07:44:23.882Z,-0.60
2019-01-19T07:46:59.318Z,-0.60
2019-01-19T07:49:33.821Z,-0.60
2019-01-19T07:52:08.215Z,-0.60
2019-01-19T07:54:42.670Z,-0.80
2019-01-19T07:57:17.298Z,-0.70
2019-01-19T07:59:51.656Z,-0.50
2019-01-19T08:02:26.111Z,-0.50
2019-01-19T08:05:00.596Z,-0.50
2019-01-19T08:07:35.128Z,-0.50
2019-01-19T08:10:16.761Z,-0.40
2019-01-19T08:12:51.226Z,-0.40
2019-01-19T08:15:29.599Z,-0.20
2019-01-19T08:18:04.163Z,-0.30
2019-01-19T08:20:38.648Z,-0.40
2019-01-19T08:23:13.102Z,0.00
2019-01-19T08:25:47.533Z,0.20
2019-01-19T08:28:21.953Z,0.20
2019-01-19T08:30:56.303Z,0.30
2019-01-19T08:33:30.767Z,0.20
2019-01-19T08:36:05.793Z,0.20
2019-01-19T08:38:40.224Z,0.30
2019-01-19T08:41:14.721Z,0.40
2019-01-19T08:43:50.736Z,0.40
2019-01-19T08:46:25.113Z,0.50
2019-01-19T08:48:59.557Z,0.50
2019-01-19T08:51:34.154Z,0.60
2019-01-19T08:54:08.636Z,0.60
2019-01-19T08:56:43.175Z,0.20
2019-01-19T08:59:17.672Z,0.10
2019-01-19T09:01:52.013Z,0.20
2019-01-19T09:04:26.472Z,0.10
2019-01-19T09:07:00.984Z,0.30
2019-01-19T09:09:35.429Z,0.30
2019-01-19T09:12:09.838Z,0.30
2019-01-19T09:14:44.297Z,0.50
2019-01-19T09:17:18.800Z,0.30
2019-01-19T09:19:53.173Z,0.50
2019-01-19T09:22:27.547Z,0.60
2019-01-19T09:25:02.005Z,0.70
2019-01-19T09:27:36.458Z,0.90
2019-01-19T09:30:23.661Z,0.90
2019-01-19T09:32:58.635Z,0.70
2019-01-19T09:35:33.087Z,0.70
2019-01-19T09:38:07.519Z,0.80
2019-01-19T09:40:42.036Z,0.70
2019-01-19T09:43:16.522Z,0.70
2019-01-19T09:45:50.960Z,0.70
2019-01-19T09:48:25.335Z,0.60
2019-01-19T09:51:00.292Z,0.80
2019-01-19T09:53:34.792Z,0.90
2019-01-19T09:56:09.234Z,0.80
2019-01-19T09:58:43.801Z,0.90
2019-01-19T10:01:18.245Z,0.80
2019-01-19T10:03:52.594Z,0.90
2019-01-19T10:06:27.028Z,1.00
2019-01-19T10:09:01.463Z,0.90
2019-01-19T10:11:36.108Z,1.00
2019-01-19T10:14:10.486Z,1.10
2019-01-19T10:16:44.935Z,1.20
2019-01-19T10:19:19.305Z,1.10
2019-01-19T10:21:53.755Z,1.10
2019-01-19T10:24:28.178Z,1.10
2019-01-19T10:27:02.694Z,1.00
2019-01-19T10:29:38.318Z,1.10
2019-01-19T10:32:12.751Z,1.30
2019-01-19T10:34:47.198Z,1.50
2019-01-19T10:37:21.659Z,1.50
2019-01-19T10:39:56.086Z,1.60
2019-01-19T10:42:30.459Z,1.60
2019-01-19T10:45:07.289Z,1.40
2019-01-19T10:47:41.804Z,1.40
2019-01-19T10:50:18.304Z,1.30
2019-01-19T10:52:52.803Z,1.20
2019-01-19T10:55:27.160Z,1.30
2019-01-19T10:58:01.676Z,1.40
2019-01-19T11:00:36.550Z,1.60
2019-01-19T11:03:11.028Z,1.50
2019-01-19T11:05:45.440Z,1.60
2019-01-19T11:08:19.881Z,1.40
2019-01-19T11:10:54.348Z,1.50
2019-01-19T11:13:28.867Z,1.60
2019-01-19T11:16:03.375Z,1.60
2019-01-19T11:18:37.825Z,1.70
2019-01-19T11:21:12.242Z,1.70
2019-01-19T11:23:46.687Z,1.80
2019-01-19T11:26:21.267Z,1.80
2019-01-19T11:28:55.714Z,2.00
2019-01-19T11:31:30.210Z,2.00
2019-01-19T11:34:04.733Z,1.90
2019-01-19T11:36:39.785Z,1.70
2019-01-19T11:39:14.314Z,1.80
2019-01-19T11:41:48.826Z,1.80
2019-01-19T11:44:23.268Z,1.90
2019-01-19T11:46:57.752Z,1.80
2019-01-19T11:49:32.136Z,1.80
2019-01-19T11:52:06.562Z,1.90
2019-01-19T11:54:41.203Z,2.00
2019-01-19T11:57:15.698Z,2.10
2019-01-19T11:59:50.089Z,2.10
2019-01-19T12:02:24.509Z,2.20
2019-01-19T12:04:58.862Z,2.30
2019-01-19T12:07:33.304Z,2.30
2019-01-19T12:10:15.463Z,2.20
2019-01-19T12:12:49.879Z,2.20
2019-01-19T12:15:24.324Z,2.20
2019-01-19T12:17:58.737Z,2.30
2019-01-19T12:20:40.204Z,2.20
2019-01-19T12:23:14.629Z,2.40
2019-01-19T12:25:49.118Z,2.20
2019-01-19T12:28:23.623Z,2.20
2019-01-19T12:30:58.071Z,2.40
2019-01-19T12:33:32.558Z,2.30
2019-01-19T12:36:06.936Z,2.30
2019-01-19T12:38:41.369Z,2.50
2019-01-19T12:41:15.739Z,2.40
2019-01-19T12:43:50.157Z,2.40
2019-01-19T12:46:24.564Z,2.40
2019-01-19T12:48:59.005Z,2.10
2019-01-19T12:51:33.974Z,2.10
2019-01-19T12:54:08.514Z,2.20
2019-01-19T12:56:42.991Z,2.20
2019-01-19T12:59:17.570Z,2.40
2019-01-19T13:01:52.014Z,2.60
2019-01-19T13:04:26.572Z,2.60
2019-01-19T13:07:01.022Z,2.60
2019-01-19T13:09:35.501Z,2.60
2019-01-19T13:12:23.803Z,2.20
2019-01-19T13:15:03.227Z,2.30
2019-01-19T13:17:54.306Z,2.20
2019-01-19T13:20:54.861Z,2.30
2019-01-19T13:23:59.862Z,2.30
2019-01-19T13:27:06.026Z,2.30
2019-01-19T13:30:05.139Z,2.30
2019-01-19T13:32:50.000Z,2.00
2019-01-19T13:35:58.071Z,2.10
2019-01-19T13:38:41.885Z,2.00
2019-01-19T13:42:01.018Z,2.00
2019-01-19T13:45:15.353Z,1.90
2019-01-19T13:48:26.194Z,2.00
2019-01-19T13:51:11.330Z,2.00
2019-01-19T13:54:09.902Z,1.90
2019-01-19T13:57:19.075Z,1.90
2019-01-19T14:00:07.127Z,1.80
2019-01-19T14:03:16.990Z,1.80
2019-01-19T14:06:01.939Z,2.00
2019-01-19T14:09:05.028Z,2.10
2019-01-19T14:12:02.226Z,2.00
2019-01-19T14:14:56.539Z,2.00
2019-01-19T14:18:17.943Z,2.00
2019-01-19T14:21:03.133Z,2.00
2019-01-19T14:23:42.941Z,2.00
2019-01-19T14:26:33.890Z,2.00
2019-01-19T14:29:34.563Z,1.90
2019-01-19T14:32:34.505Z,1.80
2019-01-19T14:35:43.794Z,1.90
2019-01-19T14:38:56.372Z,2.10
2019-01-19T14:42:21.080Z,1.80
2019-01-19T14:45:24.364Z,1.80
2019-01-19T14:48:33.847Z,1.60
2019-01-19T14:51:13.186Z,1.70
2019-01-19T14:54:04.788Z,1.70
2019-01-19T14:57:06.637Z,1.80
2019-01-19T14:59:54.899Z,1.70
2019-01-19T15:02:53.499Z,1.80
2019-01-19T15:05:35.805Z,1.80
2019-01-19T15:08:15.122Z,1.60
2019-01-19T15:11:06.503Z,1.60
2019-01-19T15:14:07.379Z,1.80
2019-01-19T15:17:09.477Z,1.70
2019-01-19T15:19:51.709Z,1.80
2019-01-19T15:22:59.963Z,1.70
2019-01-19T15:25:44.997Z,1.70
2019-01-19T15:28:42.436Z,1.90
2019-01-19T15:31:27.345Z,1.80
2019-01-19T15:34:46.187Z,1.80
2019-01-19T15:37:31.288Z,1.90
2019-01-19T15:40:28.690Z,1.80
2019-01-19T15:43:31.879Z,1.80
2019-01-19T15:46:42.760Z,1.70
2019-01-19T15:49:42.241Z,1.60
2019-01-19T15:52:27.154Z,1.70
2019-01-19T15:55:09.235Z,1.90
2019-01-19T15:57:57.420Z,2.00
2019-01-19T16:01:00.715Z,1.80
2019-01-19T16:03:51.720Z,2.00
2019-01-19T16:06:47.908Z,1.90
2019-01-19T16:09:52.738Z,2.00
2019-01-19T16:12:49.746Z,2.10
2019-01-19T16:16:14.273Z,2.00
2019-01-19T16:19:23.415Z,2.20
2019-01-19T16:22:14.087Z,2.10
2019-01-19T16:25:21.990Z,2.10
2019-01-19T16:28:39.701Z,1.90
2019-01-19T16:31:30.716Z,2.00
2019-01-19T16:34:26.313Z,2.00
2019-01-19T16:37:11.467Z,2.10
2019-01-19T16:39:56.690Z,2.10
2019-01-19T16:42:41.629Z,1.90
2019-01-19T16:45:32.806Z,1.80
2019-01-19T16:48:20.906Z,2.00
2019-01-19T16:51:02.810Z,2.00
2019-01-19T16:53:50.826Z,2.20
2019-01-19T16:56:49.852Z,2.30
2019-01-19T16:59:29.180Z,2.20
2019-01-19T17:02:08.469Z,1.90
2019-01-19T17:05:05.771Z,1.90
2019-01-19T17:08:00.233Z,2.00
2019-01-19T17:11:05.073Z,1.90
2019-01-19T17:13:56.060Z,1.70
2019-01-19T17:17:07.125Z,1.80
2019-01-19T17:20:13.006Z,1.90
2019-01-19T17:23:01.320Z,2.00
2019-01-19T17:25:49.482Z,1.80
2019-01-19T17:28:37.294Z,1.70
2019-01-19T17:31:28.665Z,1.80
2019-01-19T17:34:10.880Z,2.00
2019-01-19T17:37:02.321Z,2.00
2019-01-19T17:39:59.336Z,1.80
2019-01-19T17:43:02.560Z,1.70
2019-01-19T17:45:50.261Z,1.70
2019-01-19T17:48:38.417Z,1.70
2019-01-19T17:51:26.089Z,1.60
2019-01-19T17:54:26.393Z,1.50
2019-01-19T17:57:20.365Z,1.60
2019-01-19T18:00:35.915Z,1.70
2019-01-19T18:03:17.707Z,1.80
2019-01-19T18:06:03.047Z,1.70
2019-01-19T18:09:06.190Z,1.60
2019-01-19T18:11:51.320Z,1.50
2019-01-19T18:14:48.807Z,1.50
2019-01-19T18:17:39.349Z,1.60
2019-01-19T18:20:44.382Z,1.70
2019-01-19T18:23:47.789Z,1.80
2019-01-19T18:26:53.830Z,1.70
2019-01-19T18:29:55.693Z,1.70
2019-01-19T18:32:55.931Z,1.60
2019-01-19T18:35:47.254Z,1.60
2019-01-19T18:39:04.761Z,1.60
2019-01-19T18:42:18.874Z,1.60
2019-01-19T18:45:28.364Z,1.60
2019-01-19T18:48:57.470Z,1.40
2019-01-19T18:52:09.857Z,1.50
2019-01-19T18:54:55.253Z,1.50
2019-01-19T18:58:08.867Z,1.60
2019-01-19T19:00:59.145Z,1.60
2019-01-19T19:03:57.556Z,1.40
2019-01-19T19:07:09.968Z,1.50
2019-01-19T19:10:02.244Z,1.40
2019-01-19T19:12:47.385Z,1.50
2019-01-19T19:15:37.998Z,1.40
2019-01-19T19:18:44.576Z,1.30
2019-01-19T19:21:55.549Z,1.40
2019-01-19T19:25:09.949Z,1.40
2019-01-19T19:28:04.089Z,1.40
2019-01-19T19:30:58.288Z,1.30
2019-01-19T19:34:06.015Z,1.30
2019-01-19T19:37:03.519Z,1.50
2019-01-19T19:39:45.749Z,1.50
2019-01-19T19:42:27.546Z,1.50
2019-01-19T19:45:12.652Z,1.60
2019-01-19T19:48:03.275Z,1.60
2019-01-19T19:51:09.858Z,1.60
2019-01-19T19:53:44.641Z,1.50
2019-01-19T19:56:17.679Z,1.50
2019-01-19T19:58:52.209Z,1.40
2019-01-19T20:01:27.005Z,1.40
2019-01-19T20:04:01.581Z,1.50
2019-01-19T20:06:36.158Z,1.50
2019-01-19T20:09:10.955Z,1.40
2019-01-19T20:11:45.378Z,1.50
2019-01-19T20:14:19.810Z,1.50
2019-01-19T20:16:54.168Z,1.60
2019-01-19T20:19:28.561Z,1.50
2019-01-19T20:22:03.144Z,1.60
2019-01-19T20:24:37.655Z,1.50
2019-01-19T20:27:12.144Z,1.50
2019-01-19T20:29:46.658Z,1.60
2019-01-19T20:32:21.070Z,1.60
2019-01-19T20:34:55.534Z,1.40
2019-01-19T20:37:30.029Z,1.50
2019-01-19T20:40:08.379Z,1.50
2019-01-19T20:42:42.909Z,1.60
2019-01-19T20:45:17.488Z,1.40
2019-01-19T20:47:51.970Z,1.50
2019-01-19T20:50:26.414Z,1.50
2019-01-19T20:53:00.770Z,1.50
2019-01-19T20:55:35.339Z,1.60
2019-01-19T20:58:09.828Z,1.60
2019-01-19T21:00:44.340Z,1.60
2019-01-19T21:03:18.780Z,1.60
2019-01-19T21:05:53.212Z,1.30
2019-01-19T21:08:27.657Z,1.20
2019-01-19T21:11:02.100Z,1.40
2019-01-19T21:13:36.649Z,1.20
2019-01-19T21:16:11.101Z,1.50
2019-01-19T21:18:45.579Z,1.40
2019-01-19T21:21:20.027Z,1.30
2019-01-19T21:23:54.451Z,1.20
2019-01-19T21:26:28.815Z,1.30
2019-01-19T21:29:03.238Z,1.10
2019-01-19T21:31:37.692Z,1.00
2019-01-19T21:34:12.224Z,1.10
2019-01-19T21:36:46.682Z,1.10
2019-01-19T21:39:21.064Z,1.30
2019-01-19T21:41:55.508Z,1.30
2019-01-19T21:44:29.934Z,1.30
2019-01-19T21:47:04.449Z,1.60
2019-01-19T21:49:38.939Z,1.70
2019-01-19T21:52:13.574Z,1.70
2019-01-19T21:54:48.090Z,1.60
2019-01-19T21:57:22.554Z,1.40
2019-01-19T21:59:56.954Z,1.20
2019-01-19T22:02:31.407Z,1.00
2019-01-19T22:05:07.143Z,1.00
2019-01-19T22:07:41.665Z,1.20
2019-01-19T22:10:19.789Z,1.30
2019-01-19T22:12:54.298Z,1.40
2019-01-19T22:15:28.659Z,1.30
2019-01-19T22:18:03.277Z,1.20
2019-01-19T22:20:37.734Z,0.90
2019-01-19T22:23:12.403Z,0.90
2019-01-19T22:25:46.819Z,0.90
2019-01-19T22:28:21.249Z,1.00
2019-01-19T22:30:55.682Z,0.90
2019-01-19T22:33:30.288Z,0.90
2019-01-19T22:36:04.717Z,1.00
2019-01-19T22:38:39.360Z,1.00
2019-01-19T22:41:13.853Z,1.00
2019-01-19T22:43:48.297Z,1.10
2019-01-19T22:46:22.738Z,0.90
2019-01-19T22:48:57.181Z,0.90
2019-01-19T22:51:31.725Z,0.90
2019-01-19T22:54:06.266Z,1.00
2019-01-19T22:56:40.700Z,1.00
2019-01-19T22:59:15.082Z,1.00
2019-01-19T23:01:49.587Z,1.00
2019-01-19T23:04:24.042Z,0.80
2019-01-19T23:06:58.404Z,0.90
2019-01-19T23:09:32.847Z,1.00
2019-01-19T23:12:07.297Z,1.00
2019-01-19T23:14:42.144Z,1.10
2019-01-19T23:17:16.678Z,1.00
2019-01-19T23:19:51.062Z,0.80
2019-01-19T23:22:26.451Z,0.80
2019-01-19T23:25:01.206Z,0.80
2019-01-19T23:27:35.751Z,0.80
2019-01-19T23:30:15.748Z,0.80
2019-01-19T23:32:50.144Z,0.70
2019-01-19T23:35:25.024Z,0.80
2019-01-19T23:37:59.463Z,0.80
2019-01-19T23:40:33.896Z,0.80
2019-01-19T23:43:08.412Z,0.90
2019-01-19T23:45:43.119Z,1.10
2019-01-19T23:48:17.523Z,1.00
2019-01-19T23:50:52.010Z,0.90
2019-01-19T23:53:26.441Z,0.90
2019-01-19T23:56:00.856Z,1.00
2019-01-19T23:58:35.262Z,0.90
